sensor_id;sensor_type;location;lat;lon;timestamp;temperature;humidity
29803;DHT22;16702;50.898;4.662;2022-10-31T00:02:22;16.90;99.90
29803;DHT22;16702;50.898;4.662;2022-10-31T00:04:53;17.00;99.90
29803;DHT22;16702;50.898;4.662;2022-10-31T00:07:23;16.90;99.90
29803;DHT22;16702;50.898;4.662;2022-10-31T00:09:53;16.90;99.90
29803;DHT22;16702;50.898;4.662;2022-10-31T00:12:23;16.90;99.90
29803;DHT22;16702;50.898;4.662;2022-10-31T00:14:54;16.90;99.90
29803;DHT22;16702;50.898;4.662;2022-10-31T00:17:27;16.90;99.90
29803;DHT22;16702;50.898;4.662;2022-10-31T00:19:57;16.90;99.90
29803;DHT22;16702;50.898;4.662;2022-10-31T00:22:27;16.90;99.90
29803;DHT22;16702;50.898;4.662;2022-10-31T00:24:58;16.90;99.90
29803;DHT22;16702;50.898;4.662;2022-10-31T00:27:28;16.90;99.90
29803;DHT22;16702;50.898;4.662;2022-10-31T00:29:58;16.90;99.90
29803;DHT22;16702;50.898;4.662;2022-10-31T00:32:31;16.90;99.90
29803;DHT22;16702;50.898;4.662;2022-10-31T00:35:03;16.90;99.90
29803;DHT22;16702;50.898;4.662;2022-10-31T00:37:33;16.80;99.90
29803;DHT22;16702;50.898;4.662;2022-10-31T00:40:05;16.80;99.90
29803;DHT22;16702;50.898;4.662;2022-10-31T00:42:35;16.80;99.90
29803;DHT22;16702;50.898;4.662;2022-10-31T00:45:07;16.80;99.90
29803;DHT22;16702;50.898;4.662;2022-10-31T00:47:40;16.80;99.90
29803;DHT22;16702;50.898;4.662;2022-10-31T00:50:10;16.80;99.90
29803;DHT22;16702;50.898;4.662;2022-10-31T00:52:40;16.80;99.90
29803;DHT22;16702;50.898;4.662;2022-10-31T00:55:11;16.70;99.90
29803;DHT22;16702;50.898;4.662;2022-10-31T00:57:41;16.70;99.90
29803;DHT22;16702;50.898;4.662;2022-10-31T01:00:12;16.70;99.90
29803;DHT22;16702;50.898;4.662;2022-10-31T01:02:46;16.70;99.90
29803;DHT22;16702;50.898;4.662;2022-10-31T01:05:16;16.60;99.90
29803;DHT22;16702;50.898;4.662;2022-10-31T01:07:47;16.70;99.90
29803;DHT22;16702;50.898;4.662;2022-10-31T01:10:17;16.70;99.90
29803;DHT22;16702;50.898;4.662;2022-10-31T01:12:49;16.60;99.90
29803;DHT22;16702;50.898;4.662;2022-10-31T01:15:22;16.60;99.90
29803;DHT22;16702;50.898;4.662;2022-10-31T01:17:55;16.60;99.90
29803;DHT22;16702;50.898;4.662;2022-10-31T01:20:28;16.60;99.90
29803;DHT22;16702;50.898;4.662;2022-10-31T01:23:00;16.60;99.90
29803;DHT22;16702;50.898;4.662;2022-10-31T01:25:30;16.50;99.90
29803;DHT22;16702;50.898;4.662;2022-10-31T01:28:01;16.60;99.90
29803;DHT22;16702;50.898;4.662;2022-10-31T01:30:32;16.50;99.90
29803;DHT22;16702;50.898;4.662;2022-10-31T01:33:04;16.50;99.90
29803;DHT22;16702;50.898;4.662;2022-10-31T01:35:35;16.50;99.90
29803;DHT22;16702;50.898;4.662;2022-10-31T01:38:05;16.50;99.90
29803;DHT22;16702;50.898;4.662;2022-10-31T01:40:35;16.50;99.90
29803;DHT22;16702;50.898;4.662;2022-10-31T01:43:11;16.50;99.90
29803;DHT22;16702;50.898;4.662;2022-10-31T01:45:45;16.50;99.90
29803;DHT22;16702;50.898;4.662;2022-10-31T01:48:21;16.40;99.90
29803;DHT22;16702;50.898;4.662;2022-10-31T01:50:54;16.40;99.90
29803;DHT22;16702;50.898;4.662;2022-10-31T01:53:25;16.40;99.90
29803;DHT22;16702;50.898;4.662;2022-10-31T01:55:55;16.40;99.90
29803;DHT22;16702;50.898;4.662;2022-10-31T01:58:28;16.40;99.90
29803;DHT22;16702;50.898;4.662;2022-10-31T02:01:00;16.40;99.90
29803;DHT22;16702;50.898;4.662;2022-10-31T02:03:37;16.40;99.90
29803;DHT22;16702;50.898;4.662;2022-10-31T02:06:12;16.30;99.90
29803;DHT22;16702;50.898;4.662;2022-10-31T02:08:43;16.30;99.90
29803;DHT22;16702;50.898;4.662;2022-10-31T02:11:14;16.30;99.90
29803;DHT22;16702;50.898;4.662;2022-10-31T02:13:45;16.30;99.90
29803;DHT22;16702;50.898;4.662;2022-10-31T02:16:17;16.30;99.90
29803;DHT22;16702;50.898;4.662;2022-10-31T02:18:50;16.30;99.90
29803;DHT22;16702;50.898;4.662;2022-10-31T02:21:25;16.30;99.90
29803;DHT22;16702;50.898;4.662;2022-10-31T02:24:31;16.20;99.90
29803;DHT22;16702;50.898;4.662;2022-10-31T02:27:15;16.20;99.90
29803;DHT22;16702;50.898;4.662;2022-10-31T02:30:07;16.20;99.90
29803;DHT22;16702;50.898;4.662;2022-10-31T02:33:08;16.20;99.90
29803;DHT22;16702;50.898;4.662;2022-10-31T02:35:47;16.10;99.90
29803;DHT22;16702;50.898;4.662;2022-10-31T02:38:27;16.20;99.90
29803;DHT22;16702;50.898;4.662;2022-10-31T02:41:06;16.10;99.90
29803;DHT22;16702;50.898;4.662;2022-10-31T02:43:51;16.10;99.90
29803;DHT22;16702;50.898;4.662;2022-10-31T02:46:32;16.10;99.90
29803;DHT22;16702;50.898;4.662;2022-10-31T02:49:13;16.10;99.90
29803;DHT22;16702;50.898;4.662;2022-10-31T02:51:47;16.10;99.90
29803;DHT22;16702;50.898;4.662;2022-10-31T02:54:19;16.10;99.90
29803;DHT22;16702;50.898;4.662;2022-10-31T02:56:56;16.10;99.90
29803;DHT22;16702;50.898;4.662;2022-10-31T02:59:27;15.90;99.90
29803;DHT22;16702;50.898;4.662;2022-10-31T03:02:17;16.00;99.90
29803;DHT22;16702;50.898;4.662;2022-10-31T03:08:05;16.00;99.90
29803;DHT22;16702;50.898;4.662;2022-10-31T03:10:41;16.00;99.90
29803;DHT22;16702;50.898;4.662;2022-10-31T03:13:21;15.90;99.90
29803;DHT22;16702;50.898;4.662;2022-10-31T03:15:59;16.00;99.90
29803;DHT22;16702;50.898;4.662;2022-10-31T03:18:33;15.90;99.90
29803;DHT22;16702;50.898;4.662;2022-10-31T03:21:08;15.90;99.90
29803;DHT22;16702;50.898;4.662;2022-10-31T03:23:45;15.90;99.90
29803;DHT22;16702;50.898;4.662;2022-10-31T03:26:20;15.90;99.90
29803;DHT22;16702;50.898;4.662;2022-10-31T03:28:53;15.90;99.90
29803;DHT22;16702;50.898;4.662;2022-10-31T03:31:27;15.90;99.90
29803;DHT22;16702;50.898;4.662;2022-10-31T03:34:00;15.80;99.90
29803;DHT22;16702;50.898;4.662;2022-10-31T03:36:34;15.90;99.90
29803;DHT22;16702;50.898;4.662;2022-10-31T03:39:10;15.90;99.90
29803;DHT22;16702;50.898;4.662;2022-10-31T03:41:46;15.90;99.90
29803;DHT22;16702;50.898;4.662;2022-10-31T03:44:19;15.80;99.90
29803;DHT22;16702;50.898;4.662;2022-10-31T03:46:58;15.90;99.90
29803;DHT22;16702;50.898;4.662;2022-10-31T03:49:30;15.80;99.90
29803;DHT22;16702;50.898;4.662;2022-10-31T03:52:08;15.80;99.90
29803;DHT22;16702;50.898;4.662;2022-10-31T03:54:46;15.80;99.90
29803;DHT22;16702;50.898;4.662;2022-10-31T03:57:21;15.80;99.90
29803;DHT22;16702;50.898;4.662;2022-10-31T03:59:58;15.80;99.90
29803;DHT22;16702;50.898;4.662;2022-10-31T04:02:33;15.70;99.90
29803;DHT22;16702;50.898;4.662;2022-10-31T04:05:06;15.70;99.90
29803;DHT22;16702;50.898;4.662;2022-10-31T04:07:42;15.70;99.90
29803;DHT22;16702;50.898;4.662;2022-10-31T04:10:17;15.80;99.90
29803;DHT22;16702;50.898;4.662;2022-10-31T04:12:51;15.80;99.90
29803;DHT22;16702;50.898;4.662;2022-10-31T04:15:26;15.80;99.90
29803;DHT22;16702;50.898;4.662;2022-10-31T04:17:59;15.70;99.90
29803;DHT22;16702;50.898;4.662;2022-10-31T04:20:32;15.70;99.90
29803;DHT22;16702;50.898;4.662;2022-10-31T04:23:04;15.70;99.90
29803;DHT22;16702;50.898;4.662;2022-10-31T04:25:42;15.70;99.90
29803;DHT22;16702;50.898;4.662;2022-10-31T04:28:13;15.70;99.90
29803;DHT22;16702;50.898;4.662;2022-10-31T04:30:43;15.70;99.90
29803;DHT22;16702;50.898;4.662;2022-10-31T04:33:13;15.60;99.90
29803;DHT22;16702;50.898;4.662;2022-10-31T04:35:46;15.70;99.90
29803;DHT22;16702;50.898;4.662;2022-10-31T04:38:18;15.70;99.90
29803;DHT22;16702;50.898;4.662;2022-10-31T04:40:52;15.60;99.90
29803;DHT22;16702;50.898;4.662;2022-10-31T04:43:45;15.60;99.90
29803;DHT22;16702;50.898;4.662;2022-10-31T04:46:16;15.60;99.90
29803;DHT22;16702;50.898;4.662;2022-10-31T04:48:47;15.60;99.90
29803;DHT22;16702;50.898;4.662;2022-10-31T04:51:17;15.60;99.90
29803;DHT22;16702;50.898;4.662;2022-10-31T04:53:47;15.70;99.90
29803;DHT22;16702;50.898;4.662;2022-10-31T04:56:40;15.70;99.90
29803;DHT22;16702;50.898;4.662;2022-10-31T04:59:16;15.60;99.90
29803;DHT22;16702;50.898;4.662;2022-10-31T05:01:51;15.60;99.90
29803;DHT22;16702;50.898;4.662;2022-10-31T05:04:38;15.60;99.90
29803;DHT22;16702;50.898;4.662;2022-10-31T05:07:08;15.60;99.90
29803;DHT22;16702;50.898;4.662;2022-10-31T05:09:38;15.60;99.90
29803;DHT22;16702;50.898;4.662;2022-10-31T05:12:14;15.60;99.90
29803;DHT22;16702;50.898;4.662;2022-10-31T05:15:04;15.60;99.90
29803;DHT22;16702;50.898;4.662;2022-10-31T05:17:54;15.60;99.90
29803;DHT22;16702;50.898;4.662;2022-10-31T05:21:04;15.60;99.90
29803;DHT22;16702;50.898;4.662;2022-10-31T05:23:36;15.60;99.90
29803;DHT22;16702;50.898;4.662;2022-10-31T05:26:14;15.60;99.90
29803;DHT22;16702;50.898;4.662;2022-10-31T05:28:47;15.50;99.90
29803;DHT22;16702;50.898;4.662;2022-10-31T05:31:17;15.50;99.90
29803;DHT22;16702;50.898;4.662;2022-10-31T05:33:49;15.50;99.90
29803;DHT22;16702;50.898;4.662;2022-10-31T05:36:20;15.50;99.90
29803;DHT22;16702;50.898;4.662;2022-10-31T05:39:03;15.50;99.90
29803;DHT22;16702;50.898;4.662;2022-10-31T05:41:38;15.50;99.90
29803;DHT22;16702;50.898;4.662;2022-10-31T05:44:16;15.50;99.90
29803;DHT22;16702;50.898;4.662;2022-10-31T05:46:57;15.50;99.90
29803;DHT22;16702;50.898;4.662;2022-10-31T05:49:46;15.50;99.90
29803;DHT22;16702;50.898;4.662;2022-10-31T05:52:35;15.60;99.90
29803;DHT22;16702;50.898;4.662;2022-10-31T05:55:18;15.50;99.90
29803;DHT22;16702;50.898;4.662;2022-10-31T05:58:07;15.50;99.90
29803;DHT22;16702;50.898;4.662;2022-10-31T06:00:43;15.50;99.90
29803;DHT22;16702;50.898;4.662;2022-10-31T06:03:14;15.50;99.90
29803;DHT22;16702;50.898;4.662;2022-10-31T06:05:47;15.50;99.90
29803;DHT22;16702;50.898;4.662;2022-10-31T06:08:24;15.50;99.90
29803;DHT22;16702;50.898;4.662;2022-10-31T06:10:56;15.50;99.90
29803;DHT22;16702;50.898;4.662;2022-10-31T06:13:49;15.50;99.90
29803;DHT22;16702;50.898;4.662;2022-10-31T06:16:27;15.50;99.90
29803;DHT22;16702;50.898;4.662;2022-10-31T06:19:07;15.50;99.90
29803;DHT22;16702;50.898;4.662;2022-10-31T06:21:38;15.50;99.90
29803;DHT22;16702;50.898;4.662;2022-10-31T06:24:08;15.50;99.90
29803;DHT22;16702;50.898;4.662;2022-10-31T06:27:03;15.50;99.90
29803;DHT22;16702;50.898;4.662;2022-10-31T06:29:34;15.50;99.90
29803;DHT22;16702;50.898;4.662;2022-10-31T06:32:12;15.50;99.90
29803;DHT22;16702;50.898;4.662;2022-10-31T06:34:43;15.50;99.90
29803;DHT22;16702;50.898;4.662;2022-10-31T06:37:15;15.50;99.90
29803;DHT22;16702;50.898;4.662;2022-10-31T06:39:49;15.40;99.90
29803;DHT22;16702;50.898;4.662;2022-10-31T06:42:19;15.50;99.90
29803;DHT22;16702;50.898;4.662;2022-10-31T06:44:50;15.50;99.90
29803;DHT22;16702;50.898;4.662;2022-10-31T06:48:01;15.30;99.90
29803;DHT22;16702;50.898;4.662;2022-10-31T06:51:06;15.40;99.90
29803;DHT22;16702;50.898;4.662;2022-10-31T06:53:37;15.40;99.90
29803;DHT22;16702;50.898;4.662;2022-10-31T06:56:10;15.40;99.90
29803;DHT22;16702;50.898;4.662;2022-10-31T06:58:45;15.40;99.90
29803;DHT22;16702;50.898;4.662;2022-10-31T07:01:19;15.40;99.90
29803;DHT22;16702;50.898;4.662;2022-10-31T07:03:53;15.30;99.90
29803;DHT22;16702;50.898;4.662;2022-10-31T07:06:23;15.40;99.90
29803;DHT22;16702;50.898;4.662;2022-10-31T07:08:54;15.30;99.90
29803;DHT22;16702;50.898;4.662;2022-10-31T07:11:26;15.40;99.90
29803;DHT22;16702;50.898;4.662;2022-10-31T07:13:57;15.40;99.90
29803;DHT22;16702;50.898;4.662;2022-10-31T07:16:28;15.30;99.90
29803;DHT22;16702;50.898;4.662;2022-10-31T07:19:02;15.30;99.90
29803;DHT22;16702;50.898;4.662;2022-10-31T07:21:33;15.30;99.90
29803;DHT22;16702;50.898;4.662;2022-10-31T07:24:04;15.30;99.90
29803;DHT22;16702;50.898;4.662;2022-10-31T07:26:43;15.30;99.90
29803;DHT22;16702;50.898;4.662;2022-10-31T07:29:14;15.40;99.90
29803;DHT22;16702;50.898;4.662;2022-10-31T07:31:46;15.30;99.90
29803;DHT22;16702;50.898;4.662;2022-10-31T07:34:25;15.40;99.90
29803;DHT22;16702;50.898;4.662;2022-10-31T07:37:22;15.40;99.90
29803;DHT22;16702;50.898;4.662;2022-10-31T07:39:54;15.40;99.90
29803;DHT22;16702;50.898;4.662;2022-10-31T07:42:25;15.40;99.90
29803;DHT22;16702;50.898;4.662;2022-10-31T07:44:55;15.40;99.90
29803;DHT22;16702;50.898;4.662;2022-10-31T07:48:04;15.40;99.90
29803;DHT22;16702;50.898;4.662;2022-10-31T07:50:55;15.40;99.90
29803;DHT22;16702;50.898;4.662;2022-10-31T07:53:58;15.40;99.90
29803;DHT22;16702;50.898;4.662;2022-10-31T07:56:30;15.40;99.90
29803;DHT22;16702;50.898;4.662;2022-10-31T07:59:01;15.40;99.90
29803;DHT22;16702;50.898;4.662;2022-10-31T08:01:31;15.40;99.90
29803;DHT22;16702;50.898;4.662;2022-10-31T08:04:22;15.40;99.90
29803;DHT22;16702;50.898;4.662;2022-10-31T08:07:13;15.40;99.90
29803;DHT22;16702;50.898;4.662;2022-10-31T08:09:51;15.40;99.90
29803;DHT22;16702;50.898;4.662;2022-10-31T08:12:24;15.50;99.90
29803;DHT22;16702;50.898;4.662;2022-10-31T08:14:55;15.50;99.90
29803;DHT22;16702;50.898;4.662;2022-10-31T08:17:25;15.50;99.90
29803;DHT22;16702;50.898;4.662;2022-10-31T08:19:59;15.50;99.90
29803;DHT22;16702;50.898;4.662;2022-10-31T08:22:42;15.60;99.90
29803;DHT22;16702;50.898;4.662;2022-10-31T08:25:14;15.50;99.90
29803;DHT22;16702;50.898;4.662;2022-10-31T08:27:49;15.60;99.90
29803;DHT22;16702;50.898;4.662;2022-10-31T08:30:22;15.60;99.90
29803;DHT22;16702;50.898;4.662;2022-10-31T08:33:14;15.60;99.90
29803;DHT22;16702;50.898;4.662;2022-10-31T08:36:04;15.60;99.90
29803;DHT22;16702;50.898;4.662;2022-10-31T08:38:52;15.70;99.90
29803;DHT22;16702;50.898;4.662;2022-10-31T08:41:28;15.60;99.90
29803;DHT22;16702;50.898;4.662;2022-10-31T08:44:00;15.70;99.90
29803;DHT22;16702;50.898;4.662;2022-10-31T08:46:31;15.70;99.90
29803;DHT22;16702;50.898;4.662;2022-10-31T08:49:03;15.70;99.90
29803;DHT22;16702;50.898;4.662;2022-10-31T08:51:33;15.70;99.90
29803;DHT22;16702;50.898;4.662;2022-10-31T08:54:07;15.70;99.90
29803;DHT22;16702;50.898;4.662;2022-10-31T08:56:55;15.70;99.90
29803;DHT22;16702;50.898;4.662;2022-10-31T08:59:40;15.70;99.90
29803;DHT22;16702;50.898;4.662;2022-10-31T09:02:36;15.80;99.90
29803;DHT22;16702;50.898;4.662;2022-10-31T09:05:07;15.80;99.90
29803;DHT22;16702;50.898;4.662;2022-10-31T09:07:38;15.80;99.90
29803;DHT22;16702;50.898;4.662;2022-10-31T09:10:11;15.80;99.90
29803;DHT22;16702;50.898;4.662;2022-10-31T09:12:43;15.80;99.90
29803;DHT22;16702;50.898;4.662;2022-10-31T09:15:32;15.80;99.90
29803;DHT22;16702;50.898;4.662;2022-10-31T09:18:18;15.80;99.90
29803;DHT22;16702;50.898;4.662;2022-10-31T09:20:58;15.80;99.90
29803;DHT22;16702;50.898;4.662;2022-10-31T09:23:30;15.90;99.90
29803;DHT22;16702;50.898;4.662;2022-10-31T09:26:04;15.90;99.90
29803;DHT22;16702;50.898;4.662;2022-10-31T09:28:41;15.90;99.90
29803;DHT22;16702;50.898;4.662;2022-10-31T09:31:14;15.90;99.90
29803;DHT22;16702;50.898;4.662;2022-10-31T09:33:59;15.90;99.90
29803;DHT22;16702;50.898;4.662;2022-10-31T09:36:36;16.00;99.90
29803;DHT22;16702;50.898;4.662;2022-10-31T09:39:17;16.00;99.90
29803;DHT22;16702;50.898;4.662;2022-10-31T09:45:06;16.00;99.90
29803;DHT22;16702;50.898;4.662;2022-10-31T09:47:48;16.00;99.90
29803;DHT22;16702;50.898;4.662;2022-10-31T09:50:49;15.90;99.90
29803;DHT22;16702;50.898;4.662;2022-10-31T09:53:50;16.00;99.90
29803;DHT22;16702;50.898;4.662;2022-10-31T09:56:25;16.10;99.90
29803;DHT22;16702;50.898;4.662;2022-10-31T09:59:00;16.10;99.90
29803;DHT22;16702;50.898;4.662;2022-10-31T10:01:43;16.00;99.90
29803;DHT22;16702;50.898;4.662;2022-10-31T10:04:31;16.20;99.90
29803;DHT22;16702;50.898;4.662;2022-10-31T10:07:21;16.20;99.90
29803;DHT22;16702;50.898;4.662;2022-10-31T10:10:15;16.20;99.90
29803;DHT22;16702;50.898;4.662;2022-10-31T10:13:15;16.20;99.90
29803;DHT22;16702;50.898;4.662;2022-10-31T10:16:06;16.20;99.90
29803;DHT22;16702;50.898;4.662;2022-10-31T10:18:49;16.30;99.90
29803;DHT22;16702;50.898;4.662;2022-10-31T10:21:27;16.30;99.90
29803;DHT22;16702;50.898;4.662;2022-10-31T10:24:09;16.30;99.90
29803;DHT22;16702;50.898;4.662;2022-10-31T10:26:47;16.40;99.90
29803;DHT22;16702;50.898;4.662;2022-10-31T10:29:31;16.40;99.90
29803;DHT22;16702;50.898;4.662;2022-10-31T10:32:09;16.40;99.90
29803;DHT22;16702;50.898;4.662;2022-10-31T10:34:46;16.40;99.90
29803;DHT22;16702;50.898;4.662;2022-10-31T10:37:25;16.50;99.90
29803;DHT22;16702;50.898;4.662;2022-10-31T10:40:02;16.50;99.90
29803;DHT22;16702;50.898;4.662;2022-10-31T10:42:37;16.50;99.90
29803;DHT22;16702;50.898;4.662;2022-10-31T10:45:20;16.60;99.90
29803;DHT22;16702;50.898;4.662;2022-10-31T10:48:08;16.60;99.90
29803;DHT22;16702;50.898;4.662;2022-10-31T10:50:47;16.60;99.90
29803;DHT22;16702;50.898;4.662;2022-10-31T10:53:38;16.60;99.90
29803;DHT22;16702;50.898;4.662;2022-10-31T10:56:37;16.70;99.90
29803;DHT22;16702;50.898;4.662;2022-10-31T10:59:13;16.70;99.90
29803;DHT22;16702;50.898;4.662;2022-10-31T11:01:48;16.80;99.90
29803;DHT22;16702;50.898;4.662;2022-10-31T11:04:30;17.00;99.90
29803;DHT22;16702;50.898;4.662;2022-10-31T11:07:05;17.10;99.90
29803;DHT22;16702;50.898;4.662;2022-10-31T11:09:36;17.10;99.90
29803;DHT22;16702;50.898;4.662;2022-10-31T11:12:09;17.10;99.90
29803;DHT22;16702;50.898;4.662;2022-10-31T11:14:45;17.10;99.90
29803;DHT22;16702;50.898;4.662;2022-10-31T11:17:24;17.10;99.90
29803;DHT22;16702;50.898;4.662;2022-10-31T11:20:04;17.20;99.90
29803;DHT22;16702;50.898;4.662;2022-10-31T11:22:38;17.20;99.90
29803;DHT22;16702;50.898;4.662;2022-10-31T11:25:20;17.30;99.90
29803;DHT22;16702;50.898;4.662;2022-10-31T11:27:59;17.30;99.90
29803;DHT22;16702;50.898;4.662;2022-10-31T11:30:31;17.30;99.90
29803;DHT22;16702;50.898;4.662;2022-10-31T11:33:05;17.30;99.90
29803;DHT22;16702;50.898;4.662;2022-10-31T11:35:39;17.40;99.90
29803;DHT22;16702;50.898;4.662;2022-10-31T11:38:17;17.50;99.90
29803;DHT22;16702;50.898;4.662;2022-10-31T11:40:57;17.50;99.90
29803;DHT22;16702;50.898;4.662;2022-10-31T11:43:28;17.70;99.90
29803;DHT22;16702;50.898;4.662;2022-10-31T11:45:59;17.70;99.90
29803;DHT22;16702;50.898;4.662;2022-10-31T11:48:29;17.70;99.90
29803;DHT22;16702;50.898;4.662;2022-10-31T11:50:59;17.70;99.90
29803;DHT22;16702;50.898;4.662;2022-10-31T11:53:34;17.60;99.90
29803;DHT22;16702;50.898;4.662;2022-10-31T11:56:14;17.80;99.90
29803;DHT22;16702;50.898;4.662;2022-10-31T11:58:55;17.70;99.90
29803;DHT22;16702;50.898;4.662;2022-10-31T12:01:27;17.80;99.90
29803;DHT22;16702;50.898;4.662;2022-10-31T12:04:04;17.90;99.90
29803;DHT22;16702;50.898;4.662;2022-10-31T12:06:37;18.00;99.90
29803;DHT22;16702;50.898;4.662;2022-10-31T12:09:20;18.00;99.90
29803;DHT22;16702;50.898;4.662;2022-10-31T12:12:10;18.00;99.90
29803;DHT22;16702;50.898;4.662;2022-10-31T12:14:54;18.00;99.90
29803;DHT22;16702;50.898;4.662;2022-10-31T12:17:29;18.00;99.90
29803;DHT22;16702;50.898;4.662;2022-10-31T12:20:11;18.00;99.90
29803;DHT22;16702;50.898;4.662;2022-10-31T12:22:50;18.20;99.90
29803;DHT22;16702;50.898;4.662;2022-10-31T12:25:37;18.20;99.90
29803;DHT22;16702;50.898;4.662;2022-10-31T12:28:28;18.30;99.90
29803;DHT22;16702;50.898;4.662;2022-10-31T12:31:23;18.30;99.90
29803;DHT22;16702;50.898;4.662;2022-10-31T12:34:01;18.30;99.90
29803;DHT22;16702;50.898;4.662;2022-10-31T12:36:42;18.40;99.90
29803;DHT22;16702;50.898;4.662;2022-10-31T12:39:24;18.40;99.90
29803;DHT22;16702;50.898;4.662;2022-10-31T12:42:05;18.40;99.90
29803;DHT22;16702;50.898;4.662;2022-10-31T12:44:59;18.50;99.90
29803;DHT22;16702;50.898;4.662;2022-10-31T12:47:53;18.50;99.90
29803;DHT22;16702;50.898;4.662;2022-10-31T12:50:34;18.50;99.90
29803;DHT22;16702;50.898;4.662;2022-10-31T12:53:18;18.60;99.90
29803;DHT22;16702;50.898;4.662;2022-10-31T12:55:58;18.60;99.90
29803;DHT22;16702;50.898;4.662;2022-10-31T12:58:36;18.60;99.90
29803;DHT22;16702;50.898;4.662;2022-10-31T13:01:10;18.60;99.90
29803;DHT22;16702;50.898;4.662;2022-10-31T13:03:47;18.70;99.90
29803;DHT22;16702;50.898;4.662;2022-10-31T13:06:21;18.70;99.90
29803;DHT22;16702;50.898;4.662;2022-10-31T13:08:55;18.60;99.90
29803;DHT22;16702;50.898;4.662;2022-10-31T13:11:29;18.60;99.90
29803;DHT22;16702;50.898;4.662;2022-10-31T13:14:06;18.60;99.90
29803;DHT22;16702;50.898;4.662;2022-10-31T13:16:40;18.60;99.90
29803;DHT22;16702;50.898;4.662;2022-10-31T13:19:16;18.70;99.90
29803;DHT22;16702;50.898;4.662;2022-10-31T13:21:53;18.70;99.90
29803;DHT22;16702;50.898;4.662;2022-10-31T13:24:32;18.70;99.90
29803;DHT22;16702;50.898;4.662;2022-10-31T13:27:12;18.70;99.90
29803;DHT22;16702;50.898;4.662;2022-10-31T13:29:53;18.90;99.90
29803;DHT22;16702;50.898;4.662;2022-10-31T13:32:27;18.90;99.90
29803;DHT22;16702;50.898;4.662;2022-10-31T13:35:00;19.00;99.90
29803;DHT22;16702;50.898;4.662;2022-10-31T13:37:36;19.00;99.90
29803;DHT22;16702;50.898;4.662;2022-10-31T13:40:18;19.00;99.90
29803;DHT22;16702;50.898;4.662;2022-10-31T13:42:55;19.00;99.90
29803;DHT22;16702;50.898;4.662;2022-10-31T13:45:30;19.00;99.90
29803;DHT22;16702;50.898;4.662;2022-10-31T13:48:17;19.10;99.90
29803;DHT22;16702;50.898;4.662;2022-10-31T13:50:56;19.10;99.90
29803;DHT22;16702;50.898;4.662;2022-10-31T13:53:38;19.10;99.90
29803;DHT22;16702;50.898;4.662;2022-10-31T13:56:21;19.10;99.90
29803;DHT22;16702;50.898;4.662;2022-10-31T14:01:51;19.10;99.90
29803;DHT22;16702;50.898;4.662;2022-10-31T14:04:25;19.10;99.90
29803;DHT22;16702;50.898;4.662;2022-10-31T14:07:04;19.00;99.90
29803;DHT22;16702;50.898;4.662;2022-10-31T14:09:37;19.10;99.90
29803;DHT22;16702;50.898;4.662;2022-10-31T14:12:25;19.00;99.90
29803;DHT22;16702;50.898;4.662;2022-10-31T14:14:59;19.00;99.90
29803;DHT22;16702;50.898;4.662;2022-10-31T14:17:39;19.00;99.90
29803;DHT22;16702;50.898;4.662;2022-10-31T14:20:38;18.90;99.90
29803;DHT22;16702;50.898;4.662;2022-10-31T14:23:30;18.90;99.90
29803;DHT22;16702;50.898;4.662;2022-10-31T14:26:18;18.90;99.90
29803;DHT22;16702;50.898;4.662;2022-10-31T14:28:50;18.90;99.90
29803;DHT22;16702;50.898;4.662;2022-10-31T14:31:30;18.90;99.90
29803;DHT22;16702;50.898;4.662;2022-10-31T14:34:19;18.90;99.90
29803;DHT22;16702;50.898;4.662;2022-10-31T14:37:14;18.90;99.90
29803;DHT22;16702;50.898;4.662;2022-10-31T14:40:02;18.80;99.90
29803;DHT22;16702;50.898;4.662;2022-10-31T14:42:48;18.90;99.90
29803;DHT22;16702;50.898;4.662;2022-10-31T14:45:29;18.90;99.90
29803;DHT22;16702;50.898;4.662;2022-10-31T14:48:12;18.80;99.90
29803;DHT22;16702;50.898;4.662;2022-10-31T14:50:50;18.90;99.90
29803;DHT22;16702;50.898;4.662;2022-10-31T14:53:24;18.80;99.90
29803;DHT22;16702;50.898;4.662;2022-10-31T14:55:56;18.80;99.90
29803;DHT22;16702;50.898;4.662;2022-10-31T14:58:37;18.70;99.90
29803;DHT22;16702;50.898;4.662;2022-10-31T15:01:18;18.80;99.90
29803;DHT22;16702;50.898;4.662;2022-10-31T15:03:49;18.80;99.90
29803;DHT22;16702;50.898;4.662;2022-10-31T15:06:44;18.70;99.90
29803;DHT22;16702;50.898;4.662;2022-10-31T15:09:30;18.70;99.90
29803;DHT22;16702;50.898;4.662;2022-10-31T15:12:01;18.70;99.90
29803;DHT22;16702;50.898;4.662;2022-10-31T15:14:44;18.70;99.90
29803;DHT22;16702;50.898;4.662;2022-10-31T15:17:15;18.70;99.90
29803;DHT22;16702;50.898;4.662;2022-10-31T15:19:46;18.70;99.90
29803;DHT22;16702;50.898;4.662;2022-10-31T15:22:22;18.70;99.90
29803;DHT22;16702;50.898;4.662;2022-10-31T15:24:53;18.60;99.90
29803;DHT22;16702;50.898;4.662;2022-10-31T15:27:24;18.60;99.90
29803;DHT22;16702;50.898;4.662;2022-10-31T15:29:56;18.60;99.90
29803;DHT22;16702;50.898;4.662;2022-10-31T15:32:28;18.60;99.90
29803;DHT22;16702;50.898;4.662;2022-10-31T15:34:59;18.60;99.90
29803;DHT22;16702;50.898;4.662;2022-10-31T15:37:32;18.50;99.90
29803;DHT22;16702;50.898;4.662;2022-10-31T15:40:12;18.50;99.90
29803;DHT22;16702;50.898;4.662;2022-10-31T15:42:48;18.50;99.90
29803;DHT22;16702;50.898;4.662;2022-10-31T15:45:22;18.50;99.90
29803;DHT22;16702;50.898;4.662;2022-10-31T15:47:56;18.50;99.90
29803;DHT22;16702;50.898;4.662;2022-10-31T15:50:31;18.40;99.90
29803;DHT22;16702;50.898;4.662;2022-10-31T15:53:06;18.40;99.90
29803;DHT22;16702;50.898;4.662;2022-10-31T15:55:48;18.30;99.90
29803;DHT22;16702;50.898;4.662;2022-10-31T15:58:19;18.30;99.90
29803;DHT22;16702;50.898;4.662;2022-10-31T16:01:00;18.30;99.90
29803;DHT22;16702;50.898;4.662;2022-10-31T16:03:32;18.30;99.90
29803;DHT22;16702;50.898;4.662;2022-10-31T16:06:04;18.20;99.90
29803;DHT22;16702;50.898;4.662;2022-10-31T16:08:46;18.30;99.90
29803;DHT22;16702;50.898;4.662;2022-10-31T16:11:23;18.20;99.90
29803;DHT22;16702;50.898;4.662;2022-10-31T16:13:58;18.20;99.90
29803;DHT22;16702;50.898;4.662;2022-10-31T16:16:31;18.20;99.90
29803;DHT22;16702;50.898;4.662;2022-10-31T16:19:05;18.20;99.90
29803;DHT22;16702;50.898;4.662;2022-10-31T16:21:37;18.10;99.90
29803;DHT22;16702;50.898;4.662;2022-10-31T16:24:17;18.10;99.90
29803;DHT22;16702;50.898;4.662;2022-10-31T16:26:50;18.10;99.90
29803;DHT22;16702;50.898;4.662;2022-10-31T16:29:32;18.00;99.90
29803;DHT22;16702;50.898;4.662;2022-10-31T16:32:03;18.00;99.90
29803;DHT22;16702;50.898;4.662;2022-10-31T16:34:33;18.00;99.90
29803;DHT22;16702;50.898;4.662;2022-10-31T16:37:03;18.00;99.90
29803;DHT22;16702;50.898;4.662;2022-10-31T16:39:36;18.00;99.90
29803;DHT22;16702;50.898;4.662;2022-10-31T16:42:08;17.90;99.90
29803;DHT22;16702;50.898;4.662;2022-10-31T16:44:39;17.90;99.90